sensor_id;sensor_type;location;lat;lon;timestamp;P1;durP1;ratioP1;P2;durP2;ratioP2
45252;SDS011;63171;50.520;30.486;2023-07-31T00:02:24;3.45;;;2.90;;
45252;SDS011;63171;50.520;30.486;2023-07-31T00:03:15;9.15;;;3.55;;
45252;SDS011;63171;50.520;30.486;2023-07-31T00:04:04;5.15;;;3.45;;
45252;SDS011;63171;50.520;30.486;2023-07-31T00:04:54;3.80;;;2.97;;
45252;SDS011;63171;50.520;30.486;2023-07-31T00:05:45;6.40;;;3.10;;
45252;SDS011;63171;50.520;30.486;2023-07-31T00:06:35;4.97;;;3.03;;
45252;SDS011;63171;50.520;30.486;2023-07-31T00:07:26;4.68;;;3.58;;
45252;SDS011;63171;50.520;30.486;2023-07-31T00:08:16;3.25;;;2.95;;
45252;SDS011;63171;50.520;30.486;2023-07-31T00:09:07;4.03;;;3.70;;
45252;SDS011;63171;50.520;30.486;2023-07-31T00:09:57;3.40;;;3.13;;
45252;SDS011;63171;50.520;30.486;2023-07-31T00:10:47;2.80;;;2.60;;
45252;SDS011;63171;50.520;30.486;2023-07-31T00:11:42;3.75;;;3.45;;
45252;SDS011;63171;50.520;30.486;2023-07-31T00:12:32;4.70;;;3.15;;
45252;SDS011;63171;50.520;30.486;2023-07-31T00:13:23;3.30;;;3.03;;
45252;SDS011;63171;50.520;30.486;2023-07-31T00:14:13;3.38;;;3.08;;
45252;SDS011;63171;50.520;30.486;2023-07-31T00:15:04;5.18;;;3.55;;
45252;SDS011;63171;50.520;30.486;2023-07-31T00:15:56;3.15;;;2.95;;
45252;SDS011;63171;50.520;30.486;2023-07-31T00:16:46;5.28;;;3.15;;
45252;SDS011;63171;50.520;30.486;2023-07-31T00:17:37;4.70;;;3.60;;
45252;SDS011;63171;50.520;30.486;2023-07-31T00:18:27;5.50;;;3.15;;
45252;SDS011;63171;50.520;30.486;2023-07-31T00:19:16;5.50;;;3.42;;
45252;SDS011;63171;50.520;30.486;2023-07-31T00:20:07;3.13;;;2.85;;
45252;SDS011;63171;50.520;30.486;2023-07-31T00:20:58;3.42;;;3.08;;
45252;SDS011;63171;50.520;30.486;2023-07-31T00:21:48;3.92;;;3.60;;
45252;SDS011;63171;50.520;30.486;2023-07-31T00:22:39;3.97;;;3.13;;
45252;SDS011;63171;50.520;30.486;2023-07-31T00:23:29;4.60;;;2.92;;
45252;SDS011;63171;50.520;30.486;2023-07-31T00:24:20;3.22;;;2.67;;
45252;SDS011;63171;50.520;30.486;2023-07-31T00:25:09;4.55;;;3.30;;
45252;SDS011;63171;50.520;30.486;2023-07-31T00:26:00;3.28;;;3.03;;
45252;SDS011;63171;50.520;30.486;2023-07-31T00:26:52;3.50;;;3.20;;
45252;SDS011;63171;50.520;30.486;2023-07-31T00:27:42;3.00;;;2.80;;
45252;SDS011;63171;50.520;30.486;2023-07-31T00:28:35;6.32;;;3.80;;
45252;SDS011;63171;50.520;30.486;2023-07-31T00:29:24;3.55;;;3.25;;
45252;SDS011;63171;50.520;30.486;2023-07-31T00:30:15;3.97;;;3.53;;
45252;SDS011;63171;50.520;30.486;2023-07-31T00:31:05;4.57;;;3.35;;
45252;SDS011;63171;50.520;30.486;2023-07-31T00:31:56;3.70;;;3.40;;
45252;SDS011;63171;50.520;30.486;2023-07-31T00:32:46;6.05;;;3.60;;
45252;SDS011;63171;50.520;30.486;2023-07-31T00:33:37;4.00;;;3.58;;
45252;SDS011;63171;50.520;30.486;2023-07-31T00:34:27;5.72;;;3.30;;
45252;SDS011;63171;50.520;30.486;2023-07-31T00:35:17;5.13;;;3.38;;
45252;SDS011;63171;50.520;30.486;2023-07-31T00:36:08;4.32;;;3.22;;
45252;SDS011;63171;50.520;30.486;2023-07-31T00:36:58;3.25;;;2.67;;
45252;SDS011;63171;50.520;30.486;2023-07-31T00:37:49;4.57;;;3.13;;
45252;SDS011;63171;50.520;30.486;2023-07-31T00:38:38;3.67;;;3.38;;
45252;SDS011;63171;50.520;30.486;2023-07-31T00:39:29;4.93;;;3.85;;
45252;SDS011;63171;50.520;30.486;2023-07-31T00:40:20;4.53;;;3.35;;
45252;SDS011;63171;50.520;30.486;2023-07-31T00:41:10;3.20;;;2.90;;
45252;SDS011;63171;50.520;30.486;2023-07-31T00:42:02;3.13;;;2.92;;
45252;SDS011;63171;50.520;30.486;2023-07-31T00:42:53;3.28;;;2.88;;
45252;SDS011;63171;50.520;30.486;2023-07-31T00:43:43;4.45;;;3.28;;
45252;SDS011;63171;50.520;30.486;2023-07-31T00:44:34;4.20;;;3.80;;
45252;SDS011;63171;50.520;30.486;2023-07-31T00:45:24;4.18;;;2.83;;
45252;SDS011;63171;50.520;30.486;2023-07-31T00:46:16;3.90;;;3.22;;
45252;SDS011;63171;50.520;30.486;2023-07-31T00:47:07;3.80;;;3.28;;
45252;SDS011;63171;50.520;30.486;2023-07-31T00:47:57;4.80;;;3.58;;
45252;SDS011;63171;50.520;30.486;2023-07-31T00:48:47;4.70;;;2.78;;
45252;SDS011;63171;50.520;30.486;2023-07-31T00:49:38;3.47;;;3.17;;
45252;SDS011;63171;50.520;30.486;2023-07-31T00:50:28;3.90;;;3.28;;
45252;SDS011;63171;50.520;30.486;2023-07-31T00:52:08;3.53;;;3.22;;
45252;SDS011;63171;50.520;30.486;2023-07-31T00:52:59;4.07;;;3.78;;
45252;SDS011;63171;50.520;30.486;2023-07-31T00:53:49;3.33;;;3.03;;
45252;SDS011;63171;50.520;30.486;2023-07-31T00:54:40;4.32;;;3.92;;
45252;SDS011;63171;50.520;30.486;2023-07-31T00:55:30;4.03;;;3.60;;
45252;SDS011;63171;50.520;30.486;2023-07-31T00:56:20;3.63;;;3.30;;
45252;SDS011;63171;50.520;30.486;2023-07-31T00:57:12;4.53;;;3.47;;
45252;SDS011;63171;50.520;30.486;2023-07-31T00:58:02;3.85;;;3.50;;
45252;SDS011;63171;50.520;30.486;2023-07-31T00:58:52;4.22;;;3.05;;
45252;SDS011;63171;50.520;30.486;2023-07-31T00:59:42;4.03;;;3.63;;
45252;SDS011;63171;50.520;30.486;2023-07-31T01:00:32;4.65;;;3.08;;
45252;SDS011;63171;50.520;30.486;2023-07-31T01:01:22;6.13;;;3.67;;
45252;SDS011;63171;50.520;30.486;2023-07-31T01:02:13;5.07;;;4.28;;
45252;SDS011;63171;50.520;30.486;2023-07-31T01:03:03;3.60;;;3.28;;
45252;SDS011;63171;50.520;30.486;2023-07-31T01:03:53;3.00;;;2.80;;
45252;SDS011;63171;50.520;30.486;2023-07-31T01:04:44;4.47;;;3.15;;
45252;SDS011;63171;50.520;30.486;2023-07-31T01:05:36;8.25;;;3.83;;
45252;SDS011;63171;50.520;30.486;2023-07-31T01:06:35;4.85;;;3.47;;
45252;SDS011;63171;50.520;30.486;2023-07-31T01:07:31;4.10;;;3.70;;
45252;SDS011;63171;50.520;30.486;2023-07-31T01:08:31;4.13;;;3.20;;
45252;SDS011;63171;50.520;30.486;2023-07-31T01:09:29;3.90;;;3.50;;
45252;SDS011;63171;50.520;30.486;2023-07-31T01:10:26;3.90;;;3.08;;
45252;SDS011;63171;50.520;30.486;2023-07-31T01:11:21;5.47;;;3.83;;
45252;SDS011;63171;50.520;30.486;2023-07-31T01:12:18;3.55;;;3.25;;
45252;SDS011;63171;50.520;30.486;2023-07-31T01:13:09;3.38;;;3.08;;
45252;SDS011;63171;50.520;30.486;2023-07-31T01:14:00;4.40;;;4.05;;
45252;SDS011;63171;50.520;30.486;2023-07-31T01:14:51;3.55;;;3.25;;
45252;SDS011;63171;50.520;30.486;2023-07-31T01:15:51;4.60;;;2.90;;
45252;SDS011;63171;50.520;30.486;2023-07-31T01:16:41;4.70;;;3.22;;
45252;SDS011;63171;50.520;30.486;2023-07-31T01:17:32;4.90;;;4.20;;
45252;SDS011;63171;50.520;30.486;2023-07-31T01:18:22;5.68;;;4.00;;
45252;SDS011;63171;50.520;30.486;2023-07-31T01:19:12;4.13;;;3.75;;
45252;SDS011;63171;50.520;30.486;2023-07-31T01:20:07;3.78;;;3.47;;
45252;SDS011;63171;50.520;30.486;2023-07-31T01:21:03;8.70;;;3.90;;
45252;SDS011;63171;50.520;30.486;2023-07-31T01:23:42;3.78;;;3.47;;
45252;SDS011;63171;50.520;30.486;2023-07-31T01:24:55;3.40;;;3.10;;
45252;SDS011;63171;50.520;30.486;2023-07-31T01:25:54;3.63;;;3.33;;
45252;SDS011;63171;50.520;30.486;2023-07-31T01:26:49;5.45;;;3.33;;
45252;SDS011;63171;50.520;30.486;2023-07-31T01:27:47;3.50;;;3.22;;
45252;SDS011;63171;50.520;30.486;2023-07-31T01:28:45;4.35;;;3.95;;
45252;SDS011;63171;50.520;30.486;2023-07-31T01:29:43;3.95;;;3.65;;
45252;SDS011;63171;50.520;30.486;2023-07-31T01:30:40;4.45;;;4.05;;
45252;SDS011;63171;50.520;30.486;2023-07-31T01:31:32;3.95;;;3.50;;
45252;SDS011;63171;50.520;30.486;2023-07-31T01:32:24;7.38;;;4.00;;
45252;SDS011;63171;50.520;30.486;2023-07-31T01:33:17;7.60;;;4.40;;
45252;SDS011;63171;50.520;30.486;2023-07-31T01:34:09;4.60;;;4.20;;
45252;SDS011;63171;50.520;30.486;2023-07-31T01:35:00;4.78;;;3.47;;
45252;SDS011;63171;50.520;30.486;2023-07-31T01:36:41;4.43;;;3.75;;
45252;SDS011;63171;50.520;30.486;2023-07-31T01:37:31;4.45;;;4.05;;
45252;SDS011;63171;50.520;30.486;2023-07-31T01:38:21;8.27;;;3.58;;
45252;SDS011;63171;50.520;30.486;2023-07-31T01:39:11;6.07;;;3.75;;
45252;SDS011;63171;50.520;30.486;2023-07-31T01:40:03;3.97;;;3.58;;
45252;SDS011;63171;50.520;30.486;2023-07-31T01:40:56;5.30;;;3.90;;
45252;SDS011;63171;50.520;30.486;2023-07-31T01:41:48;3.90;;;3.60;;
45252;SDS011;63171;50.520;30.486;2023-07-31T01:42:39;5.90;;;4.22;;
45252;SDS011;63171;50.520;30.486;2023-07-31T01:43:29;7.70;;;4.00;;
45252;SDS011;63171;50.520;30.486;2023-07-31T01:44:19;4.13;;;3.72;;
45252;SDS011;63171;50.520;30.486;2023-07-31T01:45:11;10.07;;;3.83;;
45252;SDS011;63171;50.520;30.486;2023-07-31T01:46:01;4.45;;;4.05;;
45252;SDS011;63171;50.520;30.486;2023-07-31T01:46:51;4.32;;;3.97;;
45252;SDS011;63171;50.520;30.486;2023-07-31T01:47:43;8.45;;;4.15;;
45252;SDS011;63171;50.520;30.486;2023-07-31T01:48:35;6.43;;;4.18;;
45252;SDS011;63171;50.520;30.486;2023-07-31T01:49:26;6.32;;;4.07;;
45252;SDS011;63171;50.520;30.486;2023-07-31T01:50:17;4.18;;;3.88;;
45252;SDS011;63171;50.520;30.486;2023-07-31T01:51:07;5.85;;;4.43;;
45252;SDS011;63171;50.520;30.486;2023-07-31T01:51:57;4.60;;;4.00;;
45252;SDS011;63171;50.520;30.486;2023-07-31T01:52:47;4.97;;;4.10;;
45252;SDS011;63171;50.520;30.486;2023-07-31T01:53:38;5.68;;;4.65;;
45252;SDS011;63171;50.520;30.486;2023-07-31T01:54:28;4.68;;;4.28;;
45252;SDS011;63171;50.520;30.486;2023-07-31T01:55:19;6.10;;;4.15;;
45252;SDS011;63171;50.520;30.486;2023-07-31T01:56:10;6.40;;;5.18;;
45252;SDS011;63171;50.520;30.486;2023-07-31T01:57:00;5.03;;;4.55;;
45252;SDS011;63171;50.520;30.486;2023-07-31T01:57:51;12.90;;;4.57;;
45252;SDS011;63171;50.520;30.486;2023-07-31T01:58:41;4.90;;;4.50;;
45252;SDS011;63171;50.520;30.486;2023-07-31T01:59:31;5.72;;;4.43;;
45252;SDS011;63171;50.520;30.486;2023-07-31T02:00:22;5.22;;;4.82;;
45252;SDS011;63171;50.520;30.486;2023-07-31T02:01:12;5.68;;;5.28;;
45252;SDS011;63171;50.520;30.486;2023-07-31T02:02:03;5.25;;;4.80;;
45252;SDS011;63171;50.520;30.486;2023-07-31T02:02:53;5.18;;;4.68;;
45252;SDS011;63171;50.520;30.486;2023-07-31T02:03:43;5.82;;;5.22;;
45252;SDS011;63171;50.520;30.486;2023-07-31T02:04:34;6.43;;;5.35;;
45252;SDS011;63171;50.520;30.486;2023-07-31T02:05:24;8.13;;;6.10;;
45252;SDS011;63171;50.520;30.486;2023-07-31T02:06:13;11.93;;;6.55;;
45252;SDS011;63171;50.520;30.486;2023-07-31T02:07:05;10.63;;;7.32;;
45252;SDS011;63171;50.520;30.486;2023-07-31T02:07:55;10.57;;;7.47;;
45252;SDS011;63171;50.520;30.486;2023-07-31T02:08:50;7.65;;;5.75;;
45252;SDS011;63171;50.520;30.486;2023-07-31T02:09:40;8.30;;;7.50;;
45252;SDS011;63171;50.520;30.486;2023-07-31T02:10:30;8.35;;;6.88;;
45252;SDS011;63171;50.520;30.486;2023-07-31T02:11:23;8.68;;;7.82;;
45252;SDS011;63171;50.520;30.486;2023-07-31T02:12:13;7.07;;;6.20;;
45252;SDS011;63171;50.520;30.486;2023-07-31T02:13:03;7.15;;;6.50;;
45252;SDS011;63171;50.520;30.486;2023-07-31T02:13:54;9.40;;;7.25;;
45252;SDS011;63171;50.520;30.486;2023-07-31T02:14:44;7.63;;;6.93;;
45252;SDS011;63171;50.520;30.486;2023-07-31T02:15:35;7.38;;;6.70;;
45252;SDS011;63171;50.520;30.486;2023-07-31T02:16:26;7.68;;;6.97;;
45252;SDS011;63171;50.520;30.486;2023-07-31T02:17:17;7.32;;;6.72;;
45252;SDS011;63171;50.520;30.486;2023-07-31T02:18:07;9.45;;;8.45;;
45252;SDS011;63171;50.520;30.486;2023-07-31T02:18:58;7.82;;;7.22;;
45252;SDS011;63171;50.520;30.486;2023-07-31T02:19:49;6.82;;;6.03;;
45252;SDS011;63171;50.520;30.486;2023-07-31T02:20:40;7.55;;;6.95;;
45252;SDS011;63171;50.520;30.486;2023-07-31T02:21:29;8.57;;;7.35;;
45252;SDS011;63171;50.520;30.486;2023-07-31T02:22:19;9.80;;;8.90;;
45252;SDS011;63171;50.520;30.486;2023-07-31T02:23:10;9.52;;;8.63;;
45252;SDS011;63171;50.520;30.486;2023-07-31T02:24:00;9.27;;;8.45;;
45252;SDS011;63171;50.520;30.486;2023-07-31T02:24:51;9.10;;;8.27;;
45252;SDS011;63171;50.520;30.486;2023-07-31T02:25:41;9.45;;;8.75;;
45252;SDS011;63171;50.520;30.486;2023-07-31T02:26:32;7.78;;;7.07;;
45252;SDS011;63171;50.520;30.486;2023-07-31T02:27:23;10.88;;;7.65;;
45252;SDS011;63171;50.520;30.486;2023-07-31T02:28:16;9.23;;;8.43;;
45252;SDS011;63171;50.520;30.486;2023-07-31T02:29:06;7.88;;;6.90;;
45252;SDS011;63171;50.520;30.486;2023-07-31T02:29:56;8.98;;;8.07;;
45252;SDS011;63171;50.520;30.486;2023-07-31T02:30:49;9.93;;;8.05;;
45252;SDS011;63171;50.520;30.486;2023-07-31T02:31:41;8.27;;;7.47;;
45252;SDS011;63171;50.520;30.486;2023-07-31T02:32:31;8.57;;;7.55;;
45252;SDS011;63171;50.520;30.486;2023-07-31T02:33:21;7.82;;;7.13;;
45252;SDS011;63171;50.520;30.486;2023-07-31T02:34:12;9.13;;;8.30;;
45252;SDS011;63171;50.520;30.486;2023-07-31T02:35:02;8.23;;;7.53;;
45252;SDS011;63171;50.520;30.486;2023-07-31T02:35:52;9.68;;;8.43;;
45252;SDS011;63171;50.520;30.486;2023-07-31T02:36:45;9.45;;;8.38;;
45252;SDS011;63171;50.520;30.486;2023-07-31T02:37:35;8.88;;;7.88;;
45252;SDS011;63171;50.520;30.486;2023-07-31T02:38:27;8.45;;;7.75;;
45252;SDS011;63171;50.520;30.486;2023-07-31T02:39:17;9.15;;;8.35;;
45252;SDS011;63171;50.520;30.486;2023-07-31T02:40:08;11.77;;;9.32;;
45252;SDS011;63171;50.520;30.486;2023-07-31T02:40:59;12.75;;;9.52;;
45252;SDS011;63171;50.520;30.486;2023-07-31T02:41:52;10.07;;;9.07;;
45252;SDS011;63171;50.520;30.486;2023-07-31T02:42:43;10.02;;;9.23;;
45252;SDS011;63171;50.520;30.486;2023-07-31T02:43:33;11.48;;;10.30;;
45252;SDS011;63171;50.520;30.486;2023-07-31T02:44:24;11.68;;;10.18;;
45252;SDS011;63171;50.520;30.486;2023-07-31T02:45:14;10.05;;;9.13;;
45252;SDS011;63171;50.520;30.486;2023-07-31T02:46:05;8.18;;;7.38;;
45252;SDS011;63171;50.520;30.486;2023-07-31T02:46:54;9.93;;;8.95;;
45252;SDS011;63171;50.520;30.486;2023-07-31T02:47:44;8.93;;;8.13;;
45252;SDS011;63171;50.520;30.486;2023-07-31T02:48:35;9.65;;;8.85;;
45252;SDS011;63171;50.520;30.486;2023-07-31T02:49:25;11.10;;;10.05;;
45252;SDS011;63171;50.520;30.486;2023-07-31T02:50:15;12.20;;;9.35;;
45252;SDS011;63171;50.520;30.486;2023-07-31T02:51:06;10.73;;;9.77;;
45252;SDS011;63171;50.520;30.486;2023-07-31T02:51:56;11.10;;;10.15;;
45252;SDS011;63171;50.520;30.486;2023-07-31T02:52:47;10.10;;;9.20;;
45252;SDS011;63171;50.520;30.486;2023-07-31T02:53:36;10.45;;;9.55;;
45252;SDS011;63171;50.520;30.486;2023-07-31T02:54:27;10.57;;;9.63;;
45252;SDS011;63171;50.520;30.486;2023-07-31T02:55:17;11.50;;;9.77;;
45252;SDS011;63171;50.520;30.486;2023-07-31T02:56:07;11.38;;;10.38;;
45252;SDS011;63171;50.520;30.486;2023-07-31T02:57:00;11.35;;;10.35;;
45252;SDS011;63171;50.520;30.486;2023-07-31T02:57:51;10.50;;;9.60;;
45252;SDS011;63171;50.520;30.486;2023-07-31T02:58:42;11.45;;;10.35;;
45252;SDS011;63171;50.520;30.486;2023-07-31T02:59:31;11.48;;;10.32;;
45252;SDS011;63171;50.520;30.486;2023-07-31T03:00:22;11.55;;;10.55;;
45252;SDS011;63171;50.520;30.486;2023-07-31T03:01:12;11.02;;;10.13;;
45252;SDS011;63171;50.520;30.486;2023-07-31T03:02:02;18.13;;;9.77;;
45252;SDS011;63171;50.520;30.486;2023-07-31T03:02:53;10.73;;;9.82;;
45252;SDS011;63171;50.520;30.486;2023-07-31T03:03:43;12.68;;;9.85;;
45252;SDS011;63171;50.520;30.486;2023-07-31T03:04:34;11.07;;;10.07;;
45252;SDS011;63171;50.520;30.486;2023-07-31T03:05:25;11.95;;;10.57;;
45252;SDS011;63171;50.520;30.486;2023-07-31T03:06:15;9.80;;;8.90;;
45252;SDS011;63171;50.520;30.486;2023-07-31T03:07:06;11.68;;;10.50;;
45252;SDS011;63171;50.520;30.486;2023-07-31T03:07:56;10.15;;;9.25;;
45252;SDS011;63171;50.520;30.486;2023-07-31T03:08:46;14.38;;;11.70;;
45252;SDS011;63171;50.520;30.486;2023-07-31T03:09:37;17.73;;;11.63;;
45252;SDS011;63171;50.520;30.486;2023-07-31T03:10:27;10.63;;;9.63;;
45252;SDS011;63171;50.520;30.486;2023-07-31T03:11:18;15.05;;;11.30;;
45252;SDS011;63171;50.520;30.486;2023-07-31T03:12:09;13.75;;;10.60;;
45252;SDS011;63171;50.520;30.486;2023-07-31T03:13:00;47.42;;;14.00;;
45252;SDS011;63171;50.520;30.486;2023-07-31T03:13:50;10.15;;;8.93;;
45252;SDS011;63171;50.520;30.486;2023-07-31T03:14:40;16.67;;;10.35;;
45252;SDS011;63171;50.520;30.486;2023-07-31T03:15:31;16.23;;;10.77;;
45252;SDS011;63171;50.520;30.486;2023-07-31T03:16:21;9.95;;;9.02;;
45252;SDS011;63171;50.520;30.486;2023-07-31T03:17:11;25.13;;;10.02;;
45252;SDS011;63171;50.520;30.486;2023-07-31T03:18:02;13.95;;;11.50;;
45252;SDS011;63171;50.520;30.486;2023-07-31T03:18:52;11.95;;;10.85;;
45252;SDS011;63171;50.520;30.486;2023-07-31T03:19:44;13.73;;;10.70;;
45252;SDS011;63171;50.520;30.486;2023-07-31T03:20:34;11.05;;;9.93;;
45252;SDS011;63171;50.520;30.486;2023-07-31T03:21:24;13.43;;;11.20;;
45252;SDS011;63171;50.520;30.486;2023-07-31T03:22:14;11.18;;;9.95;;
45252;SDS011;63171;50.520;30.486;2023-07-31T03:23:04;15.88;;;11.57;;
45252;SDS011;63171;50.520;30.486;2023-07-31T03:23:54;11.65;;;10.55;;
45252;SDS011;63171;50.520;30.486;2023-07-31T03:24:45;55.30;;;12.93;;
45252;SDS011;63171;50.520;30.486;2023-07-31T03:25:35;15.38;;;9.43;;
45252;SDS011;63171;50.520;30.486;2023-07-31T03:26:25;12.85;;;11.55;;
45252;SDS011;63171;50.520;30.486;2023-07-31T03:27:17;73.10;;;13.55;;
45252;SDS011;63171;50.520;30.486;2023-07-31T03:28:08;9.73;;;8.93;;
45252;SDS011;63171;50.520;30.486;2023-07-31T03:28:58;21.17;;;12.60;;
45252;SDS011;63171;50.520;30.486;2023-07-31T03:29:49;52.67;;;13.98;;
45252;SDS011;63171;50.520;30.486;2023-07-31T03:30:40;83.43;;;14.38;;
45252;SDS011;63171;50.520;30.486;2023-07-31T03:31:30;60.35;;;13.38;;
45252;SDS011;63171;50.520;30.486;2023-07-31T03:32:21;55.70;;;13.15;;
45252;SDS011;63171;50.520;30.486;2023-07-31T03:33:11;11.82;;;9.55;;
45252;SDS011;63171;50.520;30.486;2023-07-31T03:34:01;10.10;;;9.07;;
45252;SDS011;63171;50.520;30.486;2023-07-31T03:34:53;13.70;;;9.52;;
45252;SDS011;63171;50.520;30.486;2023-07-31T03:35:43;10.63;;;9.10;;
45252;SDS011;63171;50.520;30.486;2023-07-31T03:36:34;11.57;;;10.20;;
45252;SDS011;63171;50.520;30.486;2023-07-31T03:37:24;14.93;;;9.73;;
45252;SDS011;63171;50.520;30.486;2023-07-31T03:38:15;26.10;;;10.68;;
45252;SDS011;63171;50.520;30.486;2023-07-31T03:39:06;38.03;;;11.98;;
45252;SDS011;63171;50.520;30.486;2023-07-31T03:40:46;10.85;;;8.20;;
45252;SDS011;63171;50.520;30.486;2023-07-31T03:41:36;10.40;;;9.30;;
45252;SDS011;63171;50.520;30.486;2023-07-31T03:42:28;10.43;;;8.80;;
45252;SDS011;63171;50.520;30.486;2023-07-31T03:43:18;11.13;;;9.88;;
45252;SDS011;63171;50.520;30.486;2023-07-31T03:44:09;10.35;;;9.35;;
45252;SDS011;63171;50.520;30.486;2023-07-31T03:45:49;11.13;;;10.13;;
45252;SDS011;63171;50.520;30.486;2023-07-31T03:46:40;9.10;;;8.23;;
45252;SDS011;63171;50.520;30.486;2023-07-31T03:47:30;10.82;;;9.73;;
45252;SDS011;63171;50.520;30.486;2023-07-31T03:48:20;10.15;;;9.00;;
45252;SDS011;63171;50.520;30.486;2023-07-31T03:49:11;10.63;;;9.63;;
45252;SDS011;63171;50.520;30.486;2023-07-31T03:50:01;10.23;;;9.18;;
45252;SDS011;63171;50.520;30.486;2023-07-31T03:50:51;11.77;;;10.75;;
45252;SDS011;63171;50.520;30.486;2023-07-31T03:51:42;17.10;;;11.18;;
45252;SDS011;63171;50.520;30.486;2023-07-31T03:52:31;27.95;;;11.13;;
45252;SDS011;63171;50.520;30.486;2023-07-31T03:53:21;86.38;;;16.73;;
45252;SDS011;63171;50.520;30.486;2023-07-31T03:54:12;10.73;;;9.48;;
45252;SDS011;63171;50.520;30.486;2023-07-31T03:55:03;12.90;;;10.02;;
45252;SDS011;63171;50.520;30.486;2023-07-31T03:55:55;11.98;;;10.88;;
45252;SDS011;63171;50.520;30.486;2023-07-31T03:56:45;11.25;;;9.32;;
45252;SDS011;63171;50.520;30.486;2023-07-31T03:57:36;10.48;;;9.48;;
45252;SDS011;63171;50.520;30.486;2023-07-31T03:58:27;11.15;;;10.00;;
45252;SDS011;63171;50.520;30.486;2023-07-31T03:59:17;11.45;;;10.35;;
45252;SDS011;63171;50.520;30.486;2023-07-31T04:00:07;10.88;;;9.88;;
45252;SDS011;63171;50.520;30.486;2023-07-31T04:01:04;10.02;;;9.10;;
45252;SDS011;63171;50.520;30.486;2023-07-31T04:01:54;13.55;;;11.23;;
45252;SDS011;63171;50.520;30.486;2023-07-31T04:02:44;26.85;;;10.82;;
45252;SDS011;63171;50.520;30.486;2023-07-31T04:03:35;11.95;;;10.85;;
45252;SDS011;63171;50.520;30.486;2023-07-31T04:04:25;15.27;;;9.68;;
45252;SDS011;63171;50.520;30.486;2023-07-31T04:05:16;11.38;;;9.82;;
45252;SDS011;63171;50.520;30.486;2023-07-31T04:06:06;11.65;;;9.77;;
45252;SDS011;63171;50.520;30.486;2023-07-31T04:06:57;11.20;;;8.57;;
45252;SDS011;63171;50.520;30.486;2023-07-31T04:07:47;11.32;;;10.15;;
45252;SDS011;63171;50.520;30.486;2023-07-31T04:08:38;10.18;;;9.23;;
45252;SDS011;63171;50.520;30.486;2023-07-31T04:09:28;10.23;;;9.25;;
45252;SDS011;63171;50.520;30.486;2023-07-31T04:10:18;10.65;;;9.60;;
45252;SDS011;63171;50.520;30.486;2023-07-31T04:11:09;9.60;;;8.70;;
45252;SDS011;63171;50.520;30.486;2023-07-31T04:11:59;9.60;;;8.60;;
45252;SDS011;63171;50.520;30.486;2023-07-31T04:12:51;11.80;;;9.05;;
45252;SDS011;63171;50.520;30.486;2023-07-31T04:13:40;11.65;;;9.55;;
45252;SDS011;63171;50.520;30.486;2023-07-31T04:14:32;11.15;;;10.05;;
45252;SDS011;63171;50.520;30.486;2023-07-31T04:15:21;10.20;;;9.20;;
45252;SDS011;63171;50.520;30.486;2023-07-31T04:16:11;13.43;;;10.07;;
45252;SDS011;63171;50.520;30.486;2023-07-31T04:17:02;11.00;;;8.43;;
45252;SDS011;63171;50.520;30.486;2023-07-31T04:18:42;10.18;;;8.07;;
45252;SDS011;63171;50.520;30.486;2023-07-31T04:19:33;9.18;;;7.97;;
45252;SDS011;63171;50.520;30.486;2023-07-31T04:20:23;10.68;;;9.60;;
45252;SDS011;63171;50.520;30.486;2023-07-31T04:21:14;8.30;;;7.65;;
45252;SDS011;63171;50.520;30.486;2023-07-31T04:22:03;8.15;;;7.43;;
45252;SDS011;63171;50.520;30.486;2023-07-31T04:22:54;7.95;;;7.20;;
45252;SDS011;63171;50.520;30.486;2023-07-31T04:23:44;6.93;;;6.28;;
45252;SDS011;63171;50.520;30.486;2023-07-31T04:24:35;7.32;;;6.40;;
45252;SDS011;63171;50.520;30.486;2023-07-31T04:25:25;5.97;;;5.55;;
45252;SDS011;63171;50.520;30.486;2023-07-31T04:26:16;6.50;;;6.00;;
45252;SDS011;63171;50.520;30.486;2023-07-31T04:27:57;4.88;;;4.47;;
45252;SDS011;63171;50.520;30.486;2023-07-31T04:28:48;5.13;;;4.72;;
45252;SDS011;63171;50.520;30.486;2023-07-31T04:29:37;5.45;;;5.05;;
45252;SDS011;63171;50.520;30.486;2023-07-31T04:30:29;5.40;;;4.93;;
45252;SDS011;63171;50.520;30.486;2023-07-31T04:31:19;6.05;;;3.75;;
45252;SDS011;63171;50.520;30.486;2023-07-31T04:32:09;10.57;;;5.95;;
45252;SDS011;63171;50.520;30.486;2023-07-31T04:33:00;5.28;;;4.88;;
45252;SDS011;63171;50.520;30.486;2023-07-31T04:33:50;5.05;;;4.65;;
45252;SDS011;63171;50.520;30.486;2023-07-31T04:34:40;5.72;;;5.07;;
45252;SDS011;63171;50.520;30.486;2023-07-31T04:35:30;5.00;;;4.70;;
45252;SDS011;63171;50.520;30.486;2023-07-31T04:36:20;6.55;;;4.03;;
45252;SDS011;63171;50.520;30.486;2023-07-31T04:37:11;5.45;;;5.05;;
45252;SDS011;63171;50.520;30.486;2023-07-31T04:38:01;4.97;;;4.57;;
45252;SDS011;63171;50.520;30.486;2023-07-31T04:38:52;4.10;;;3.80;;
45252;SDS011;63171;50.520;30.486;2023-07-31T04:39:43;5.13;;;4.72;;
45252;SDS011;63171;50.520;30.486;2023-07-31T04:40:33;4.60;;;4.18;;
45252;SDS011;63171;50.520;30.486;2023-07-31T04:41:24;4.38;;;3.97;;
45252;SDS011;63171;50.520;30.486;2023-07-31T04:42:15;4.25;;;3.97;;
45252;SDS011;63171;50.520;30.486;2023-07-31T04:43:06;4.00;;;3.70;;
45252;SDS011;63171;50.520;30.486;2023-07-31T04:43:57;4.35;;;4.05;;
45252;SDS011;63171;50.520;30.486;2023-07-31T04:44:47;4.90;;;4.50;;
45252;SDS011;63171;50.520;30.486;2023-07-31T04:45:37;4.63;;;4.20;;
45252;SDS011;63171;50.520;30.486;2023-07-31T04:46:28;4.50;;;4.18;;
45252;SDS011;63171;50.520;30.486;2023-07-31T04:47:18;4.28;;;3.92;;
45252;SDS011;63171;50.520;30.486;2023-07-31T04:48:58;4.88;;;3.85;;
45252;SDS011;63171;50.520;30.486;2023-07-31T04:49:48;7.22;;;4.03;;
45252;SDS011;63171;50.520;30.486;2023-07-31T04:50:39;6.45;;;4.22;;
45252;SDS011;63171;50.520;30.486;2023-07-31T04:51:29;5.15;;;4.75;;
45252;SDS011;63171;50.520;30.486;2023-07-31T04:52:20;4.53;;;3.55;;
45252;SDS011;63171;50.520;30.486;2023-07-31T04:53:10;3.78;;;3.47;;
45252;SDS011;63171;50.520;30.486;2023-07-31T04:54:00;4.18;;;3.75;;
45252;SDS011;63171;50.520;30.486;2023-07-31T04:54:51;4.05;;;3.65;;
45252;SDS011;63171;50.520;30.486;2023-07-31T04:55:41;3.95;;;3.60;;
45252;SDS011;63171;50.520;30.486;2023-07-31T04:56:32;6.03;;;4.38;;
45252;SDS011;63171;50.520;30.486;2023-07-31T04:57:22;5.50;;;5.10;;
45252;SDS011;63171;50.520;30.486;2023-07-31T04:58:13;5.50;;;4.75;;
45252;SDS011;63171;50.520;30.486;2023-07-31T04:59:04;5.30;;;3.92;;
45252;SDS011;63171;50.520;30.486;2023-07-31T04:59:54;4.32;;;4.03;;
45252;SDS011;63171;50.520;30.486;2023-07-31T05:00:44;4.63;;;4.28;;
45252;SDS011;63171;50.520;30.486;2023-07-31T05:01:34;4.13;;;3.83;;
45252;SDS011;63171;50.520;30.486;2023-07-31T05:02:25;7.00;;;4.28;;
45252;SDS011;63171;50.520;30.486;2023-07-31T05:03:15;4.97;;;4.47;;
45252;SDS011;63171;50.520;30.486;2023-07-31T05:04:05;6.15;;;4.30;;
45252;SDS011;63171;50.520;30.486;2023-07-31T05:04:56;4.63;;;4.32;;
45252;SDS011;63171;50.520;30.486;2023-07-31T05:05:47;4.57;;;4.13;;
45252;SDS011;63171;50.520;30.486;2023-07-31T05:06:37;4.25;;;3.95;;
45252;SDS011;63171;50.520;30.486;2023-07-31T05:07:27;3.92;;;3.63;;
45252;SDS011;63171;50.520;30.486;2023-07-31T05:08:17;4.10;;;3.80;;
45252;SDS011;63171;50.520;30.486;2023-07-31T05:09:08;4.20;;;3.88;;
45252;SDS011;63171;50.520;30.486;2023-07-31T05:09:58;5.03;;;4.07;;